Time;durP1;ratioP1;P1;durP2;ratioP2;P2;SDS_P1;SDS_P2;PMS_P1;PMS_P2;Temp;Humidity;BMP_temperature;BMP_pressure;BME280_temperature;BME280_humidity;BME280_pressure;Samples;Min_cycle;Max_cycle;Signal;HPM_P1;HPM_P2
2023/03/17 00:00:55;;;;;;;14.40;7.78;;;;;;;1.61;36.29;99293.56;5128987;28;20047;-70
2023/03/17 00:03:25;;;;;;;11.98;8.43;;;;;;;4.45;36.62;99738.53;5128796;28;20054;-70
2023/03/17 00:05:54;;;;;;;10.48;7.18;;;;;;;3.61;36.46;99630.31;5127687;28;20036;-70
2023/03/17 00:08:23;;;;;;;9.73;7.35;;;;;;;4.45;36.51;99754.28;5128054;28;20035;-70
2023/03/17 00:10:50;;;;;;;10.75;7.18;;;;;;;3.84;36.44;99659.47;5129227;28;20246;-70
2023/03/17 00:13:17;;;;;;;13.95;8.10;;;;;;;4.30;36.52;99718.75;5129213;28;20039;-70
2023/03/17 00:15:49;;;;;;;11.07;6.53;;;;;;;4.50;36.89;99744.53;5128453;28;20035;-71
2023/03/17 00:18:18;;;;;;;12.65;7.45;;;;;;;4.39;36.63;99736.91;5128456;28;20057;-70
2023/03/17 00:20:47;;;;;;;12.23;6.63;;;;;;;4.36;36.75;99733.50;5127797;28;20084;-69
2023/03/17 00:23:16;;;;;;;13.43;7.18;;;;;;;3.93;37.08;99662.78;5128354;28;20043;-70
2023/03/17 00:25:44;;;;;;;9.10;6.28;;;;;;;4.27;37.06;99731.97;5128312;28;20179;-70
2023/03/17 00:28:17;;;;;;;9.07;6.40;;;;;;;4.05;37.40;99702.72;5128883;28;20040;-70
2023/03/17 00:30:45;;;;;;;10.85;6.72;;;;;;;4.20;37.48;99735.63;5127993;28;20054;-71
2023/03/17 00:33:12;;;;;;;8.82;6.32;;;;;;;4.27;37.21;99729.34;5128421;28;20310;-70
2023/03/17 00:35:40;;;;;;;8.90;6.55;;;;;;;4.31;37.15;99727.50;5128617;28;20187;-70
2023/03/17 00:38:07;;;;;;;7.32;5.95;;;;;;;4.09;37.22;99688.63;5127236;28;20238;-69
2023/03/17 00:40:34;;;;;;;7.13;5.68;;;;;;;4.27;37.28;99720.59;5128068;28;20043;-69
2023/03/17 00:43:01;;;;;;;10.40;6.63;;;;;;;4.31;37.16;99724.88;5128223;28;20288;-70
2023/03/17 00:45:28;;;;;;;10.90;6.82;;;;;;;4.34;37.03;99707.28;5128464;28;20169;-70
2023/03/17 00:47:56;;;;;;;7.88;6.20;;;;;;;4.30;37.16;99703.03;5128153;28;20078;-70
2023/03/17 00:50:26;;;;;;;8.75;5.93;;;;;;;4.30;37.25;99713.50;5126946;28;20045;-70
2023/03/17 00:52:55;;;;;;;8.38;6.05;;;;;;;4.31;37.27;99704.75;5127772;28;20047;-70
2023/03/17 00:55:22;;;;;;;8.65;6.18;;;;;;;4.29;37.26;99690.81;5127887;28;20035;-70
2023/03/17 00:57:49;;;;;;;7.45;5.90;;;;;;;4.27;37.36;99686.50;5127992;28;20107;-70
2023/03/17 01:00:23;;;;;;;8.40;5.60;;;;;;;4.22;37.75;99680.50;5127614;28;20069;-70
2023/03/17 01:02:51;;;;;;;7.15;5.25;;;;;;;4.21;37.51;99676.16;5127879;28;20052;-69
2023/03/17 01:05:20;;;;;;;7.97;5.95;;;;;;;3.71;37.54;99594.25;5127493;28;20039;-69
2023/03/17 01:07:51;;;;;;;7.97;5.00;;;;;;;4.13;37.36;99652.69;5126714;28;20036;-70
2023/03/17 01:10:22;;;;;;;7.90;4.63;;;;;;;3.62;37.60;99574.38;5126611;28;20345;-69
2023/03/17 01:12:50;;;;;;;6.32;4.60;;;;;;;4.24;37.37;99662.94;5127375;28;20032;-69
2023/03/17 01:15:18;;;;;;;6.28;5.28;;;;;;;4.22;37.38;99643.75;5126610;28;20045;-69
2023/03/17 01:17:45;;;;;;;7.40;4.82;;;;;;;4.21;37.39;99649.91;5126300;28;20047;-69
2023/03/17 01:20:17;;;;;;;5.95;4.00;;;;;;;4.20;37.61;99640.28;5127721;28;20036;-69
2023/03/17 01:22:45;;;;;;;5.55;4.18;;;;;;;4.21;37.50;99644.66;5127348;28;20043;-69
2023/03/17 01:25:12;;;;;;;6.32;4.15;;;;;;;4.18;37.40;99643.81;5126224;28;20061;-69
2023/03/17 01:27:41;;;;;;;7.10;4.35;;;;;;;4.23;37.25;99642.88;5126225;28;20110;-69
2023/03/17 01:30:17;;;;;;;8.95;4.65;;;;;;;4.18;37.78;99635.94;5127283;28;20048;-69
2023/03/17 01:32:44;;;;;;;6.85;4.57;;;;;;;4.15;37.47;99633.38;5127080;28;20051;-69
2023/03/17 01:35:11;;;;;;;7.13;5.15;;;;;;;3.92;37.58;99585.88;5126766;28;20046;-69
2023/03/17 01:37:38;;;;;;;5.65;4.10;;;;;;;4.15;37.39;99628.16;5126363;28;20195;-69
2023/03/17 01:40:08;;;;;;;6.32;4.88;;;;;;;4.14;37.63;99623.78;5125957;28;20043;-69
2023/03/17 01:42:35;;;;;;;7.82;4.75;;;;;;;3.89;37.51;99580.72;5125959;28;20035;-69
2023/03/17 01:45:04;;;;;;;6.22;4.28;;;;;;;4.10;37.36;99616.91;5125933;28;20035;-70
2023/03/17 01:47:31;;;;;;;8.48;5.22;;;;;;;4.13;37.30;99618.59;5127217;27;20061;-70
2023/03/17 01:50:04;;;;;;;5.35;4.38;;;;;;;4.12;37.72;99616.88;5126923;28;20042;-69
2023/03/17 01:52:31;;;;;;;6.15;4.30;;;;;;;4.09;37.59;99617.81;5126616;28;20067;-69
2023/03/17 01:55:03;;;;;;;5.68;4.18;;;;;;;4.10;37.67;99605.53;5126499;28;20039;-69
2023/03/17 01:57:35;;;;;;;7.38;5.35;;;;;;;4.10;38.14;99609.03;5125729;28;20035;-69
2023/03/17 02:00:07;;;;;;;6.80;4.60;;;;;;;3.66;38.07;99536.72;5126791;28;20043;-69
2023/03/17 02:02:36;;;;;;;6.70;4.90;;;;;;;4.03;37.80;99610.09;5126320;28;20047;-69
2023/03/17 02:05:04;;;;;;;8.32;4.65;;;;;;;4.03;38.06;99596.09;5126708;28;20042;-69
2023/03/17 02:07:32;;;;;;;6.18;5.00;;;;;;;3.45;38.00;99532.84;5126607;28;20054;-69
2023/03/17 02:09:59;;;;;;;5.03;4.32;;;;;;;3.15;38.26;99462.84;5108933;28;20043;-69
2023/03/17 02:12:29;;;;;;;5.35;4.00;;;;;;;3.96;37.98;99602.41;5126282;28;20043;-68
2023/03/17 02:14:58;;;;;;;6.30;4.30;;;;;;;3.94;38.44;99610.31;5125965;28;20040;-68
2023/03/17 02:17:27;;;;;;;5.72;4.28;;;;;;;3.39;38.18;99526.88;5126238;28;20348;-68
2023/03/17 02:19:54;;;;;;;7.53;4.53;;;;;;;3.90;38.27;99599.94;5125545;28;20039;-68
2023/03/17 02:22:23;;;;;;;6.38;4.95;;;;;;;3.89;38.30;99598.22;5126168;28;20110;-68
2023/03/17 02:24:53;;;;;;;7.38;5.10;;;;;;;3.93;38.19;99590.22;5126642;28;20043;-69
2023/03/17 02:27:26;;;;;;;6.93;4.30;;;;;;;3.96;38.33;99591.91;5126016;28;20043;-68
2023/03/17 02:29:53;;;;;;;5.50;4.40;;;;;;;3.93;38.44;99586.75;5125223;28;20046;-68
2023/03/17 02:32:20;;;;;;;6.45;4.30;;;;;;;3.52;38.26;99536.19;5125887;28;20078;-69
2023/03/17 02:34:48;;;;;;;6.20;4.15;;;;;;;3.48;38.56;99535.38;5126451;28;20050;-69
2023/03/17 02:37:16;;;;;;;6.03;4.10;;;;;;;3.81;38.93;99591.38;5125873;28;20229;-68
2023/03/17 02:39:45;;;;;;;5.70;4.55;;;;;;;3.27;38.66;99517.56;5125177;28;20050;-69
2023/03/17 02:42:12;;;;;;;6.60;4.85;;;;;;;3.79;38.83;99589.69;5125858;28;20040;-68
2023/03/17 02:44:39;;;;;;;5.78;4.50;;;;;;;3.76;39.04;99584.53;5126190;28;20043;-69
2023/03/17 02:47:07;;;;;;;5.68;4.47;;;;;;;3.76;38.98;99576.66;5125885;28;20042;-69
2023/03/17 02:49:35;;;;;;;5.50;4.45;;;;;;;3.16;38.85;99499.47;5125713;28;20047;-69
2023/03/17 02:52:02;;;;;;;6.28;4.80;;;;;;;3.72;38.82;99591.59;5126319;28;20035;-69
2023/03/17 02:54:29;;;;;;;8.13;4.60;;;;;;;3.68;39.13;99589.97;5125767;28;20195;-69
2023/03/17 02:56:57;;;;;;;8.10;4.88;;;;;;;3.66;39.46;99588.28;5126307;28;20056;-69
2023/03/17 02:59:24;;;;;;;5.88;4.32;;;;;;;3.63;39.19;99594.44;5124971;28;20062;-69
2023/03/17 03:01:51;;;;;;;6.53;4.97;;;;;;;3.64;39.22;99603.16;5125882;28;20052;-68
2023/03/17 03:04:19;;;;;;;6.57;4.47;;;;;;;2.81;39.54;99458.38;5125727;28;20058;-68
2023/03/17 03:06:46;;;;;;;7.00;4.63;;;;;;;3.65;39.35;99602.28;5124861;28;20296;-69
2023/03/17 03:09:13;;;;;;;7.25;4.50;;;;;;;3.63;39.49;99597.06;5125743;28;20070;-69
2023/03/17 03:11:41;;;;;;;5.43;4.07;;;;;;;3.62;39.46;99605.81;5125636;28;20043;-69
2023/03/17 03:14:10;;;;;;;6.00;4.20;;;;;;;3.37;39.81;99550.50;5127879;28;20069;-69
2023/03/17 03:16:37;;;;;;;8.52;5.15;;;;;;;3.62;39.68;99589.25;5129923;28;20089;-69
2023/03/17 03:19:04;;;;;;;6.40;4.50;;;;;;;1.01;39.60;99149.38;5129559;28;20058;-69
2023/03/17 03:21:31;;;;;;;7.40;4.72;;;;;;;3.54;40.14;99589.41;5129801;28;20051;-69
2023/03/17 03:23:57;;;;;;;7.25;4.97;;;;;;;3.49;40.65;99592.16;5128658;28;20223;-69
2023/03/17 03:26:24;;;;;;;5.45;4.60;;;;;;;3.47;40.19;99577.34;5129123;28;20066;-69
2023/03/17 03:28:51;;;;;;;5.80;4.53;;;;;;;3.45;40.31;99580.00;5129402;28;20039;-69
2023/03/17 03:31:20;;;;;;;6.43;5.32;;;;;;;3.42;40.38;99572.22;5129500;28;20065;-69
2023/03/17 03:33:46;;;;;;;5.63;4.05;;;;;;;3.15;40.43;99525.69;5129576;28;20043;-69
2023/03/17 03:36:13;;;;;;;6.15;4.57;;;;;;;3.40;40.47;99575.75;5129781;28;20054;-69
2023/03/17 03:38:40;;;;;;;8.52;5.00;;;;;;;3.27;40.40;99550.75;5128323;28;20066;-69
2023/03/17 03:41:07;;;;;;;5.85;4.18;;;;;;;2.36;40.85;99426.19;5111546;28;20035;-69
2023/03/17 03:43:35;;;;;;;7.15;4.20;;;;;;;3.36;40.25;99559.25;5128303;28;20310;-69
2023/03/17 03:46:02;;;;;;;5.80;4.00;;;;;;;3.38;40.77;99548.75;5129177;28;20031;-68
2023/03/17 03:48:30;;;;;;;6.43;4.38;;;;;;;3.36;40.96;99563.63;5129534;28;20047;-68
2023/03/17 03:50:58;;;;;;;5.93;4.78;;;;;;;3.34;40.60;99555.81;5128121;28;20084;-68
2023/03/17 03:53:26;;;;;;;8.35;4.90;;;;;;;3.34;40.45;99554.94;5128093;28;20295;-69
2023/03/17 03:55:53;;;;;;;6.68;4.95;;;;;;;2.69;40.66;99453.41;5128669;28;20039;-68
2023/03/17 03:58:19;;;;;;;7.10;4.35;;;;;;;3.29;40.67;99567.28;5128881;28;20036;-68
2023/03/17 04:00:46;;;;;;;8.70;4.93;;;;;;;3.24;40.81;99558.66;5128837;28;20081;-69
2023/03/17 04:03:13;;;;;;;7.85;5.18;;;;;;;3.23;40.39;99559.56;5127845;28;20230;-69
2023/03/17 04:05:42;;;;;;;6.90;4.82;;;;;;;3.24;40.70;99558.66;5128712;28;20050;-69
2023/03/17 04:08:09;;;;;;;7.85;5.00;;;;;;;3.19;40.96;99561.38;5128583;28;20039;-69
2023/03/17 04:10:36;;;;;;;6.32;4.15;;;;;;;3.17;40.60;99568.41;5128513;28;20047;-69
2023/03/17 04:13:03;;;;;;;6.22;4.68;;;;;;;3.14;40.71;99568.47;5127878;28;20307;-69
2023/03/17 04:15:30;;;;;;;8.30;5.55;;;;;;;3.15;40.67;99563.22;5129069;28;20049;-68
2023/03/17 04:17:57;;;;;;;9.88;5.10;;;;;;;3.12;41.31;99572.91;5127491;28;20050;-68
2023/03/17 04:20:24;;;;;;;6.82;5.22;;;;;;;2.68;40.86;99492.69;5128477;28;20043;-69
2023/03/17 04:22:52;;;;;;;7.47;5.18;;;;;;;3.08;41.24;99556.38;5127428;28;20085;-69
2023/03/17 04:25:19;;;;;;;6.70;4.95;;;;;;;3.05;40.91;99553.84;5127545;28;20280;-69
2023/03/17 04:27:45;;;;;;;10.15;5.53;;;;;;;3.09;40.67;99555.50;5128255;28;20111;-69
2023/03/17 04:30:15;;;;;;;7.00;4.85;;;;;;;3.11;40.80;99552.84;5128174;27;20059;-69
2023/03/17 04:32:43;;;;;;;7.68;5.78;;;;;;;3.10;40.98;99548.50;5128605;28;20047;-69
2023/03/17 04:35:13;;;;;;;7.75;5.35;;;;;;;3.07;41.04;99548.56;5127983;28;20032;-69
2023/03/17 04:37:40;;;;;;;7.25;5.10;;;;;;;3.05;40.49;99553.84;5128263;28;20048;-69
2023/03/17 04:40:10;;;;;;;7.32;4.80;;;;;;;3.01;41.10;99543.47;5128282;28;20054;-70
2023/03/17 04:42:37;;;;;;;7.70;4.90;;;;;;;2.98;41.02;99552.25;5128002;28;20237;-70
2023/03/17 04:45:05;;;;;;;8.50;5.63;;;;;;;2.46;40.69;99463.50;5127199;28;20117;-70
2023/03/17 04:47:32;;;;;;;6.63;5.05;;;;;;;-2.20;41.08;98674.31;5128210;27;20288;-70
2023/03/17 04:49:58;;;;;;;6.72;4.80;;;;;;;2.29;41.25;99445.53;5128574;28;20036;-70
2023/03/17 04:52:25;;;;;;;8.05;5.28;;;;;;;2.91;41.17;99540.19;5110095;28;20085;-68
2023/03/17 04:54:52;;;;;;;6.32;5.00;;;;;;;2.92;41.12;99541.03;5127409;28;20050;-68
2023/03/17 04:57:21;;;;;;;8.60;5.25;;;;;;;2.87;42.10;99538.53;5127711;28;20051;-69
2023/03/17 04:59:47;;;;;;;8.85;5.60;;;;;;;2.85;41.15;99546.41;5126984;28;20035;-69
2023/03/17 05:02:14;;;;;;;7.03;4.65;;;;;;;2.85;41.27;99546.41;5126834;28;20040;-69
2023/03/17 05:04:41;;;;;;;8.60;4.80;;;;;;;1.93;41.36;99367.84;5127407;28;20043;-69
2023/03/17 05:07:08;;;;;;;6.75;5.70;;;;;;;2.88;41.32;99542.84;5127333;28;20039;-69
2023/03/17 05:09:35;;;;;;;7.80;5.22;;;;;;;2.88;41.26;99550.72;5126517;28;20043;-69
2023/03/17 05:12:01;;;;;;;6.93;5.53;;;;;;;2.87;41.44;99535.91;5127778;28;20040;-69
2023/03/17 05:14:30;;;;;;;6.22;5.53;;;;;;;2.84;41.35;99539.44;5127416;28;20325;-69
2023/03/17 05:16:57;;;;;;;10.13;5.75;;;;;;;2.84;41.79;99539.44;5127055;28;20299;-69
2023/03/17 05:19:23;;;;;;;7.07;6.00;;;;;;;2.81;41.55;99542.13;5127369;28;20051;-69
2023/03/17 05:21:50;;;;;;;8.95;6.15;;;;;;;2.77;41.63;99535.22;5126415;28;20303;-68
2023/03/17 05:24:17;;;;;;;7.30;5.55;;;;;;;2.77;41.62;99542.22;5127428;28;20061;-68
2023/03/17 05:26:44;;;;;;;6.65;4.63;;;;;;;2.79;41.97;99543.06;5126873;28;20036;-69
2023/03/17 05:29:11;;;;;;;7.53;4.88;;;;;;;2.77;41.61;99542.22;5126843;28;20035;-68
2023/03/17 05:31:39;;;;;;;6.60;4.90;;;;;;;2.76;41.72;99550.97;5126650;28;20226;-69
2023/03/17 05:34:06;;;;;;;7.70;5.07;;;;;;;2.78;41.94;99549.19;5126735;28;20047;-69
2023/03/17 05:36:34;;;;;;;6.43;5.50;;;;;;;2.80;41.93;99552.63;5125841;28;20032;-69
2023/03/17 05:39:00;;;;;;;8.05;5.75;;;;;;;2.63;41.79;99533.78;5126662;28;20039;-69
2023/03/17 05:41:27;;;;;;;6.25;5.30;;;;;;;2.83;41.70;99547.31;5126762;28;20051;-69
2023/03/17 05:43:54;;;;;;;10.43;5.65;;;;;;;2.88;41.57;99542.84;5126523;28;20061;-69
2023/03/17 05:46:21;;;;;;;9.10;5.65;;;;;;;2.85;41.48;99549.03;5125634;28;20043;-69
2023/03/17 05:48:49;;;;;;;6.72;5.38;;;;;;;2.86;41.99;99542.03;5126963;28;20108;-69
2023/03/17 05:51:16;;;;;;;8.85;5.40;;;;;;;2.55;41.65;99494.69;5126742;28;20299;-69
2023/03/17 05:53:43;;;;;;;8.35;5.63;;;;;;;2.91;41.94;99544.56;5126392;28;20039;-69
2023/03/17 05:56:09;;;;;;;8.23;5.82;;;;;;;2.91;42.08;99542.78;5126806;28;20092;-68
2023/03/17 05:58:36;;;;;;;9.80;6.75;;;;;;;2.92;41.77;99541.03;5126906;28;20110;-68
2023/03/17 06:01:03;;;;;;;7.68;5.60;;;;;;;2.71;41.81;99501.34;5126832;28;20043;-68
2023/03/17 06:03:30;;;;;;;8.98;5.90;;;;;;;2.68;41.91;99490.06;5126819;28;20063;-69
2023/03/17 06:05:58;;;;;;;10.70;5.32;;;;;;;2.47;42.57;99458.22;5126471;28;20291;-68
2023/03/17 06:08:25;;;;;;;9.85;5.32;;;;;;;3.03;41.80;99541.66;5126218;28;20049;-68
2023/03/17 06:10:52;;;;;;;9.50;6.05;;;;;;;3.11;42.01;99542.38;5126703;28;20043;-69
2023/03/17 06:13:18;;;;;;;9.43;6.25;;;;;;;3.16;41.74;99540.50;5127000;28;20050;-68
2023/03/17 06:15:48;;;;;;;10.60;5.97;;;;;;;3.25;41.93;99540.31;5125676;28;20031;-69
2023/03/17 06:18:15;;;;;;;10.80;7.57;;;;;;;1.05;41.88;99144.09;5125836;28;20091;-69
2023/03/17 06:20:42;;;;;;;6.55;5.05;;;;;;;3.45;41.27;99535.47;5125941;28;20035;-69
2023/03/17 06:23:10;;;;;;;9.07;5.57;;;;;;;3.52;41.41;99516.06;5125989;28;20039;-68
2023/03/17 06:25:37;;;;;;;9.23;5.85;;;;;;;3.01;41.25;99421.25;5126417;28;20055;-70
2023/03/17 06:28:05;;;;;;;9.25;5.18;;;;;;;3.82;40.70;99532.81;5126518;28;20226;-70
2023/03/17 06:30:32;;;;;;;7.75;6.40;;;;;;;3.76;40.59;99492.78;5125449;28;20047;-69
2023/03/17 06:32:59;;;;;;;8.10;5.07;;;;;;;4.09;40.60;99526.00;5124713;28;20040;-69
2023/03/17 06:35:27;;;;;;;7.97;5.05;;;;;;;4.17;40.39;99533.66;5125707;28;20035;-69
2023/03/17 06:37:54;;;;;;;7.50;5.28;;;;;;;4.26;40.28;99529.97;5126105;28;20039;-70
2023/03/17 06:40:22;;;;;;;9.00;5.40;;;;;;;4.37;40.16;99535.78;5125953;28;20043;-69
2023/03/17 06:42:49;;;;;;;7.82;5.43;;;;;;;4.52;40.09;99530.13;5126059;28;20039;-69
2023/03/17 06:45:16;;;;;;;9.32;5.45;;;;;;;4.64;39.72;99528.91;5125867;28;20042;-69
2023/03/17 06:47:42;;;;;;;8.80;5.65;;;;;;;4.72;39.55;99530.41;5126060;28;20063;-70
2023/03/17 06:50:11;;;;;;;10.45;5.03;;;;;;;4.82;39.32;99528.38;5129301;28;20321;-69
2023/03/17 06:52:38;;;;;;;7.55;4.97;;;;;;;4.92;39.21;99524.63;5129181;28;20039;-69
2023/03/17 06:55:07;;;;;;;8.52;5.45;;;;;;;5.09;38.92;99538.13;5129917;28;20110;-70
2023/03/17 06:57:36;;;;;;;8.35;5.20;;;;;;;4.06;38.56;99434.28;5129858;28;20053;-70
2023/03/17 07:00:05;;;;;;;11.68;5.20;;;;;;;5.17;38.56;99537.88;5130191;28;20036;-69
2023/03/17 07:02:32;;;;;;;8.45;5.60;;;;;;;5.36;38.23;99532.91;5129841;28;20048;-70
2023/03/17 07:04:59;;;;;;;9.38;4.60;;;;;;;5.38;37.87;99534.59;5128837;28;20123;-70
2023/03/17 07:07:26;;;;;;;9.38;4.65;;;;;;;5.45;37.77;99516.84;5130291;28;20043;-69
2023/03/17 07:09:54;;;;;;;8.52;5.13;;;;;;;5.88;37.40;99524.22;5129833;28;20287;-69
2023/03/17 07:12:21;;;;;;;10.40;5.18;;;;;;;5.90;36.81;99489.97;5129615;27;20080;-70
2023/03/17 07:14:49;;;;;;;8.02;4.78;;;;;;;6.25;36.59;99528.22;5129535;28;20043;-69
2023/03/17 07:17:17;;;;;;;9.68;6.43;;;;;;;6.40;36.49;99531.16;5129370;28;20067;-70
2023/03/17 07:19:44;;;;;;;8.13;5.18;;;;;;;6.39;36.24;99537.34;5129402;28;20039;-70
2023/03/17 07:22:12;;;;;;;7.28;4.55;;;;;;;6.51;36.34;99532.56;5129947;28;20039;-71
2023/03/17 07:24:40;;;;;;;7.35;5.32;;;;;;;6.12;36.33;99434.81;5129351;28;20054;-70
2023/03/17 07:27:07;;;;;;;7.25;4.75;;;;;;;6.93;35.73;99531.03;5129451;28;20309;-71
2023/03/17 07:29:34;;;;;;;12.13;5.75;;;;;;;6.81;35.81;99554.34;5129656;27;20044;-71
2023/03/17 07:32:02;;;;;;;11.18;5.63;;;;;;;6.86;35.86;99526.91;5129262;28;20115;-71
2023/03/17 07:34:29;;;;;;;8.73;5.38;;;;;;;6.94;35.69;99530.09;5129176;28;20058;-71
2023/03/17 07:36:56;;;;;;;8.52;5.32;;;;;;;5.31;35.57;99232.63;5129585;28;20032;-71
2023/03/17 07:39:23;;;;;;;9.90;5.80;;;;;;;7.14;35.18;99505.63;5129267;28;20036;-71
2023/03/17 07:41:53;;;;;;;9.27;5.65;;;;;;;6.79;35.18;99467.44;5128849;28;20268;-71
2023/03/17 07:44:21;;;;;;;6.57;5.13;;;;;;;7.19;35.31;99527.41;5129470;28;20266;-71
2023/03/17 07:46:48;;;;;;;7.10;4.93;;;;;;;7.17;35.30;99510.78;5128573;28;20124;-71
2023/03/17 07:49:17;;;;;;;11.18;5.30;;;;;;;7.18;35.36;99517.78;5129589;28;20291;-71
2023/03/17 07:51:44;;;;;;;8.25;4.85;;;;;;;7.03;35.62;99474.41;5128400;28;20039;-71
2023/03/17 07:54:12;;;;;;;8.88;5.38;;;;;;;7.32;35.39;99504.06;5128971;28;20321;-71
2023/03/17 07:56:39;;;;;;;6.45;4.80;;;;;;;7.16;35.18;99464.25;5127902;28;20131;-71
2023/03/17 07:59:09;;;;;;;9.65;4.90;;;;;;;7.57;35.11;99499.53;5127212;28;20031;-71
2023/03/17 08:01:37;;;;;;;9.50;5.10;;;;;;;7.14;35.12;99417.78;5128925;28;20063;-72
2023/03/17 08:04:04;;;;;;;17.65;5.68;;;;;;;7.48;34.44;99504.34;5128114;28;20044;-71
2023/03/17 08:06:33;;;;;;;8.07;4.90;;;;;;;7.53;34.79;99495.31;5110840;28;20035;-71
2023/03/17 08:08:59;;;;;;;8.90;4.50;;;;;;;7.55;35.12;99456.56;5110884;28;20035;-71
2023/03/17 08:11:26;;;;;;;9.50;4.90;;;;;;;7.93;34.43;99512.13;5128688;28;20054;-71
2023/03/17 08:13:53;;;;;;;7.00;5.13;;;;;;;7.44;34.58;99421.00;5127528;28;20210;-71
2023/03/17 08:16:20;;;;;;;7.97;4.75;;;;;;;7.89;34.57;99486.81;5127243;28;20057;-71
2023/03/17 08:18:48;;;;;;;7.68;6.18;;;;;;;6.86;34.42;99320.56;5094363;28;20063;-71
2023/03/17 08:21:15;;;;;;;7.93;5.03;;;;;;;7.40;34.31;99414.13;5127438;28;20036;-71
2023/03/17 08:23:43;;;;;;;9.10;4.22;;;;;;;8.07;34.01;99471.97;5128703;28;20056;-71
2023/03/17 08:26:12;;;;;;;8.95;4.63;;;;;;;7.65;34.07;99423.59;5128762;28;20062;-71
2023/03/17 08:28:40;;;;;;;19.95;6.85;;;;;;;7.71;34.08;99422.47;5128415;28;20062;-71
2023/03/17 08:31:12;;;;;;;7.97;5.60;;;;;;;8.02;33.44;99494.13;5127627;28;20193;-71
2023/03/17 08:33:41;;;;;;;7.40;4.88;;;;;;;7.84;34.11;99450.06;5127492;28;20078;-71
2023/03/17 08:36:09;;;;;;;8.48;4.30;;;;;;;7.80;33.76;99435.28;5127999;28;20040;-71
2023/03/17 08:38:37;;;;;;;7.57;4.88;;;;;;;7.59;33.78;99413.31;5127493;28;20100;-71
2023/03/17 08:41:07;;;;;;;5.28;3.78;;;;;;;8.27;33.64;99477.25;5128118;28;20072;-71
2023/03/17 08:43:35;;;;;;;5.80;4.13;;;;;;;8.37;33.18;99493.53;5127301;28;20063;-71
2023/03/17 08:46:06;;;;;;;7.05;4.40;;;;;;;8.48;32.55;99508.00;5127454;28;20089;-70
2023/03/17 08:48:35;;;;;;;7.93;4.82;;;;;;;8.04;32.88;99449.19;5128117;27;20050;-71
2023/03/17 08:51:02;;;;;;;6.82;4.50;;;;;;;8.50;33.47;99474.44;5128209;28;20039;-71
2023/03/17 08:53:29;;;;;;;5.90;4.47;;;;;;;8.63;33.68;99464.19;5127814;28;20036;-71
2023/03/17 08:55:56;;;;;;;7.70;5.32;;;;;;;7.74;33.54;99319.47;5126924;28;20055;-70
2023/03/17 08:58:26;;;;;;;7.75;5.82;;;;;;;8.55;32.85;99485.66;5127735;28;20297;-71
2023/03/17 09:00:53;;;;;;;12.43;5.75;;;;;;;8.42;33.54;99478.34;5127755;28;20051;-71
2023/03/17 09:03:21;;;;;;;6.93;5.50;;;;;;;8.22;33.56;99439.63;5127625;28;20067;-72
2023/03/17 09:05:48;;;;;;;8.80;5.20;;;;;;;8.34;34.16;99492.75;5127804;28;20054;-71
2023/03/17 09:08:16;;;;;;;8.02;6.15;;;;;;;8.38;33.87;99474.13;5127585;28;20093;-71
2023/03/17 09:10:43;;;;;;;11.07;5.60;;;;;;;7.82;33.59;99395.63;5126646;28;20047;-71
2023/03/17 09:13:10;;;;;;;11.07;5.50;;;;;;;7.94;33.84;99447.88;5126777;28;20359;-71
2023/03/17 09:15:39;;;;;;;8.90;6.18;;;;;;;8.18;33.87;99511.97;5127845;28;20069;-71
2023/03/17 09:18:07;;;;;;;8.85;6.00;;;;;;;8.22;33.86;99503.84;5126837;28;20264;-71
2023/03/17 09:20:34;;;;;;;6.40;4.97;;;;;;;7.60;34.04;99374.59;5127530;28;20040;-71
2023/03/17 09:23:05;;;;;;;11.45;6.55;;;;;;;8.13;33.90;99462.00;5126417;28;20059;-71
2023/03/17 09:25:35;;;;;;;9.20;5.57;;;;;;;8.34;33.95;99497.16;5126127;28;20048;-70
2023/03/17 09:28:02;;;;;;;7.40;5.22;;;;;;;8.02;33.95;99440.50;5126291;28;20165;-71
2023/03/17 09:30:29;;;;;;;10.68;5.60;;;;;;;8.42;34.00;99491.56;5109714;28;20032;-70
2023/03/17 09:32:57;;;;;;;8.20;5.40;;;;;;;8.38;33.51;99482.03;5127178;28;20106;-68
2023/03/17 09:35:26;;;;;;;6.88;5.28;;;;;;;8.25;33.60;99465.88;5125974;28;20100;-70
2023/03/17 09:37:54;;;;;;;9.98;6.28;;;;;;;7.86;33.70;99391.94;5126001;28;20046;-69
2023/03/17 09:40:27;;;;;;;13.80;5.72;;;;;;;8.49;33.59;99491.22;5125929;28;20040;-70
2023/03/17 09:43:04;;;;;;;7.60;5.47;;;;;;;8.51;32.69;99473.50;5127399;27;20098;-70
2023/03/17 09:45:34;;;;;;;7.55;4.88;;;;;;;8.08;33.08;99419.09;5109281;28;20307;-70
2023/03/17 09:48:36;;;;;;;8.35;5.38;;;;;;;8.22;32.68;99429.06;5126213;28;20214;-70
2023/03/17 09:51:06;;;;;;;9.73;4.88;;;;;;;8.15;32.67;99433.75;5127103;28;20066;-70
2023/03/17 09:53:36;;;;;;;6.50;4.85;;;;;;;8.22;32.65;99414.06;5108738;28;20036;-70
2023/03/17 09:56:08;;;;;;;7.38;4.93;;;;;;;8.04;32.39;99375.28;5125806;28;20325;-70
2023/03/17 09:58:37;;;;;;;7.20;4.88;;;;;;;8.61;32.48;99472.16;5126898;28;20046;-70
2023/03/17 10:01:05;;;;;;;10.45;4.90;;;;;;;8.65;32.72;99463.19;5125338;28;20296;-70
2023/03/17 10:03:34;;;;;;;7.18;4.60;;;;;;;8.77;31.40;99488.19;5125408;28;20093;-70
2023/03/17 10:06:17;;;;;;;10.52;4.65;;;;;;;8.80;30.34;99452.84;5126502;28;20055;-70
2023/03/17 10:08:53;;;;;;;8.63;4.97;;;;;;;8.86;30.67;99453.41;5126480;27;20044;-70
2023/03/17 10:11:33;;;;;;;10.13;4.78;;;;;;;8.74;30.64;99405.56;5125353;28;20039;-70
2023/03/17 10:14:03;;;;;;;6.28;3.97;;;;;;;9.11;31.18;99434.59;5108478;28;20058;-70
2023/03/17 10:16:39;;;;;;;9.20;4.72;;;;;;;9.28;30.48;99442.59;5126108;28;20036;-70
2023/03/17 10:19:19;;;;;;;8.48;4.78;;;;;;;9.51;30.02;99427.44;5126313;28;20039;-70
2023/03/17 10:21:51;;;;;;;9.25;4.93;;;;;;;9.59;31.03;99434.06;5125304;28;20035;-70
2023/03/17 10:24:19;;;;;;;8.02;4.22;;;;;;;9.65;30.31;99453.22;5126168;28;20110;-69
2023/03/17 10:26:49;;;;;;;9.10;4.75;;;;;;;9.69;29.61;99445.03;5126067;28;20046;-70
2023/03/17 10:29:20;;;;;;;5.93;4.32;;;;;;;9.75;29.17;99451.81;5126025;28;20280;-70
2023/03/17 10:31:47;;;;;;;7.25;4.38;;;;;;;9.54;29.80;99400.81;5125850;28;20048;-70
2023/03/17 10:34:22;;;;;;;13.85;4.53;;;;;;;9.62;29.12;99420.66;5126080;28;20047;-70
2023/03/17 10:36:53;;;;;;;8.65;4.65;;;;;;;9.72;29.66;99423.72;5125875;28;20036;-70
2023/03/17 10:39:21;;;;;;;9.10;5.30;;;;;;;9.82;30.20;99398.50;5124953;28;20032;-70
2023/03/17 10:41:55;;;;;;;6.40;4.50;;;;;;;10.16;28.39;99447.06;5125051;28;20122;-70
2023/03/17 10:44:35;;;;;;;7.50;3.78;;;;;;;10.09;28.22;99422.69;5125092;28;20123;-70
2023/03/17 10:47:02;;;;;;;10.75;3.90;;;;;;;9.96;28.72;99360.72;5125547;28;20084;-70
2023/03/17 10:49:36;;;;;;;9.55;4.53;;;;;;;9.75;27.95;99352.09;5124812;28;20035;-70
2023/03/17 10:52:07;;;;;;;4.97;3.80;;;;;;;10.43;28.68;99427.06;5125541;28;20360;-70
2023/03/17 10:54:37;;;;;;;7.10;4.40;;;;;;;10.43;28.85;99395.25;5125816;28;20296;-70
2023/03/17 10:57:09;;;;;;;5.15;3.63;;;;;;;10.66;27.24;99422.31;5125720;28;20203;-70
2023/03/17 10:59:42;;;;;;;7.38;4.00;;;;;;;10.22;27.30;99344.28;5125230;28;20122;-70
2023/03/17 11:02:20;;;;;;;5.47;3.70;;;;;;;9.80;26.67;99275.09;5125859;28;20043;-70
2023/03/17 11:04:48;;;;;;;8.60;4.32;;;;;;;10.64;27.96;99381.78;5125495;28;20040;-70
2023/03/17 11:07:17;;;;;;;6.53;4.00;;;;;;;10.87;27.87;99410.56;5125227;28;20039;-70
2023/03/17 11:09:49;;;;;;;8.68;3.95;;;;;;;9.51;27.09;99194.63;5125832;28;20032;-70
2023/03/17 11:12:25;;;;;;;7.47;4.00;;;;;;;10.69;26.76;99353.22;5125466;28;20304;-70
2023/03/17 11:14:59;;;;;;;7.40;3.80;;;;;;;10.97;27.15;99411.75;5124573;28;20035;-70
2023/03/17 11:17:38;;;;;;;7.70;4.70;;;;;;;10.97;26.34;99385.25;5125551;28;20054;-70
2023/03/17 11:20:20;;;;;;;8.73;4.03;;;;;;;10.76;26.11;99381.97;5106995;28;20307;-70
2023/03/17 11:22:54;;;;;;;6.15;4.45;;;;;;;10.79;26.23;99403.03;5125726;28;20303;-72
2023/03/17 11:25:22;;;;;;;9.13;4.28;;;;;;;10.89;27.37;99400.72;5125579;28;20031;-71
2023/03/17 11:27:54;;;;;;;5.95;3.90;;;;;;;10.03;26.42;99276.50;5125830;28;20048;-71
2023/03/17 11:30:30;;;;;;;7.15;4.30;;;;;;;10.85;26.23;99393.88;5125412;28;20098;-71
2023/03/17 11:33:04;;;;;;;7.57;4.45;;;;;;;10.84;26.96;99384.22;5125990;28;20035;-71
2023/03/17 11:35:40;;;;;;;8.13;4.32;;;;;;;10.74;26.23;99351.19;5128313;28;20040;-71
2023/03/17 11:38:19;;;;;;;9.18;4.72;;;;;;;10.96;26.38;99367.63;5128542;28;20039;-71
2023/03/17 11:41:15;;;;;;;6.47;3.85;;;;;;;11.12;26.91;99365.81;5129718;28;20088;-71
2023/03/17 11:44:00;;;;;;;7.13;3.90;;;;;;;11.24;26.09;99373.06;5128365;28;20126;-71
2023/03/17 11:46:31;;;;;;;5.95;4.63;;;;;;;10.28;26.83;99197.41;5129400;28;20299;-71